Leesburg International Airport
KLEE : rendu visible

Aérodrome :











RETROUVEZ-NOUS SUR...

 
LOGIN :

S'inscrire | Disclaimer

   EN    FR    IT 

 









Légende :    VFR   VFR Marginal   IFR   IFR Intensif   IFR Très Intensif
Visi : 
Plafond : 
>= 8 km
>= 3000ft
5 à 8 km
1000 à 3000 ft
1500m à 5 km
500 à 1000 ft
800 à 1500m
200 à 500 ft
< 800m
< 200 ft
Symboles :   Orages  Brouillard  Fortes neiges  Fortes précipitations  Vent > 20 kt






- Altitude de l'aérodrome : 76 ft


KLEE - Leesburg International

DERNIER METAR :
  • 290553Z AUTO 00000KT 7SM CLR 22/20 A3010 RMK AO2 SLP190 T02170200 10300 20217 57000

METARs EXPIRÉS :
  • 290453Z AUTO 28003KT 9SM CLR 23/21 A3010 RMK AO2 SLP190 T02280206 403330222
  • 290353Z AUTO 29004KT 10SM CLR 24/21 A3009 RMK AO2 SLP189 T02390206

TAF KLEE
Valide du 29 à 06h jusqu'au 30 à 06h UTC


290542Z 2906/3006 VRB03KT P6SM SKC
TEMPO 2910/2913 3SM BR SCT005
FM291500 18005KT P6SM SKC
FM292300 28008KT P6SM SKC
FM300200 VRB03KT P6SM SKC



MET'MAP, la Météo Aéronautique d'un coup d'oeil ! - Copyright ORBIFLY Décembre 2007 - Disclaimer

ORBIFLY MET'MAP TEAM :

Programmation & Développement : Alexandra Zaïnal
Sur une idée originale de : Baudouin d'Aumeries
Assistance à la programmation : Marc-Olivier Méhu
Soutien technique & logistique : Manuel Goepfert

Contact : metmap@orbifly.com




SOURCES & CREDITS :

   NOAA       Earth
Advisory